Terminal Aerodrome Forecast
Issued by NWS

Current Version | Previous Version | Text Only | Print | Product List | Glossary On
Versions: 1 2 3 4 5 6 7 8 9 10 11 12 13 14 15 16 17 18
000
FTUS42 KMLB 172345
TAFFPR
TAF
KFPR 172345Z 1800/1824 03005KT P6SM VCSH SCT025 SCT080 BKN250
     FM180200 03005KT P6SM VCSH SCT035 BKN050 OVC100
     FM181500 05007KT P6SM SCT025 BKN080
     FM181800 05008KT P6SM VCSH SCT025 BKN050=

USA.gov is the U.S. government's official web portal to all federal, state and local government web resources and services.